AAL2991 KEWR-KCLT
Flight info
| Callsign | AAL2991 |
|---|---|
| Flight time | N/A |
| Altitude | 32000 |
| Route | BIGGY Q75 GVE AIROW CHSLY6 |
| Aircraft | E75L/M-SDE3GILORVW/S |
Departure
| Time | 2026-04-21 23:45 |
|---|---|
| Airport | Newark Liberty International Airport (KEWR) |
Arrival
| Time | N/A |
|---|---|
| Airport | Charlotte Douglas International Airport (KCLT) |
| Time | Latitude | Longitude | Altitude | Speed | Heading |
|---|---|---|---|---|---|
| 2026-04-21 23:12 | 40.69559 | -74.17236 | 18 ft | 0 kts | 315° |
| 2026-04-21 23:32 | 40.69556 | -74.17233 | 18 ft | 3 kts | 315° |
| 2026-04-21 23:33 | 40.69543 | -74.17215 | 19 ft | 3 kts | 315° |
| 2026-04-21 23:33 | 40.69529 | -74.17197 | 17 ft | 3 kts | 315° |
| 2026-04-21 23:33 | 40.69515 | -74.17191 | 20 ft | 1 kts | 30° |
| 2026-04-21 23:33 | 40.69513 | -74.17193 | 20 ft | 0 kts | 47° |
| 2026-04-21 23:35 | 40.69515 | -74.17188 | 17 ft | 0 kts | 64° |
| 2026-04-21 23:36 | 40.69515 | -74.17187 | 17 ft | 1 kts | 69° |
| 2026-04-21 23:36 | 40.69516 | -74.17183 | 17 ft | 0 kts | 84° |
| 2026-04-21 23:36 | 40.69516 | -74.17181 | 18 ft | 0 kts | 86° |
| 2026-04-21 23:38 | 40.69516 | -74.17179 | 18 ft | 0 kts | 86° |
| 2026-04-21 23:39 | 40.69516 | -74.17177 | 17 ft | 0 kts | 86° |
| 2026-04-21 23:40 | 40.69516 | -74.17176 | 17 ft | 0 kts | 86° |
| 2026-04-21 23:41 | 40.69517 | -74.17120 | 17 ft | 12 kts | 84° |
| 2026-04-21 23:41 | 40.69531 | -74.17011 | 17 ft | 12 kts | 83° |
| 2026-04-21 23:41 | 40.69505 | -74.16910 | 18 ft | 9 kts | 115° |
| 2026-04-21 23:41 | 40.69521 | -74.16845 | 20 ft | 9 kts | 32° |
| 2026-04-21 23:42 | 40.69586 | -74.16803 | 18 ft | 12 kts | 27° |
| 2026-04-21 23:42 | 40.69670 | -74.16750 | 18 ft | 15 kts | 25° |
| 2026-04-21 23:42 | 40.69731 | -74.16710 | 15 ft | 11 kts | 26° |
| 2026-04-21 23:42 | 40.69800 | -74.16666 | 14 ft | 8 kts | 26° |
| 2026-04-21 23:43 | 40.69857 | -74.16629 | 13 ft | 10 kts | 25° |
| 2026-04-21 23:43 | 40.69928 | -74.16585 | 15 ft | 12 kts | 25° |
| 2026-04-21 23:43 | 40.70009 | -74.16534 | 13 ft | 15 kts | 26° |
| 2026-04-21 23:43 | 40.70063 | -74.16468 | 15 ft | 11 kts | 82° |
| 2026-04-21 23:44 | 40.70049 | -74.16377 | 13 ft | 9 kts | 134° |
| 2026-04-21 23:44 | 40.70011 | -74.16376 | 12 ft | 1 kts | 206° |
| 2026-04-21 23:44 | 40.69881 | -74.16457 | 13 ft | 57 kts | 206° |
| 2026-04-21 23:44 | 40.69539 | -74.16674 | 21 ft | 106 kts | 206° |
| 2026-04-21 23:45 | 40.68393 | -74.17438 | 486 ft | 151 kts | 210° |
| 2026-04-21 23:45 | 40.66321 | -74.18534 | 991 ft | 163 kts | 187° |
| 2026-04-21 23:45 | 40.65264 | -74.18681 | 824 ft | 145 kts | 186° |
| 2026-04-21 23:46 | 40.64256 | -74.18822 | 1063 ft | 144 kts | 189° |